Time;durP1;ratioP1;P1;durP2;ratioP2;P2;SDS_P1;SDS_P2;PMS_P1;PMS_P2;Temp;Humidity;BMP_temperature;BMP_pressure;BME280_temperature;BME280_humidity;BME280_pressure;Samples;Min_cycle;Max_cycle;Signal;HPM_P1;HPM_P2
2022/05/16 00:00:27;;;;;;;8.65;2.15;;;21.00;56.80;;;;;;5036878;28;20044;-75
2022/05/16 00:03:00;;;;;;;7.35;1.75;;;21.00;56.90;;;;;;5036952;28;20377;-75
2022/05/16 00:05:26;;;;;;;9.27;2.30;;;21.00;56.90;;;;;;5036745;28;20054;-75
2022/05/16 00:07:53;;;;;;;8.55;2.03;;;21.00;57.00;;;;;;5036333;28;20393;-75
2022/05/16 00:10:19;;;;;;;8.32;2.10;;;20.90;57.20;;;;;;5036470;28;20040;-75
2022/05/16 00:12:44;;;;;;;11.10;2.40;;;20.90;57.90;;;;;;5036676;28;20022;-75
2022/05/16 00:15:12;;;;;;;10.75;2.30;;;20.80;57.40;;;;;;5036441;28;20025;-75
2022/05/16 00:17:38;;;;;;;11.57;1.67;;;20.80;57.40;;;;;;5036331;28;20366;-75
2022/05/16 00:20:05;;;;;;;11.95;2.20;;;20.90;57.50;;;;;;5036205;28;20087;-75
2022/05/16 00:22:31;;;;;;;11.05;2.28;;;20.90;57.40;;;;;;5036466;28;20029;-75
2022/05/16 00:24:57;;;;;;;6.10;1.88;;;20.90;57.60;;;;;;5036032;28;20531;-75
2022/05/16 00:27:23;;;;;;;10.65;2.30;;;20.90;57.50;;;;;;5036474;28;20025;-75
2022/05/16 00:29:48;;;;;;;10.02;2.50;;;20.90;57.50;;;;;;5036470;28;20025;-75
2022/05/16 00:32:15;;;;;;;9.13;2.53;;;21.00;57.50;;;;;;5035849;28;20501;-75
2022/05/16 00:34:40;;;;;;;8.98;2.38;;;20.90;57.50;;;;;;5036078;28;20034;-75
2022/05/16 00:37:06;;;;;;;9.70;1.67;;;20.90;57.70;;;;;;5036233;28;20051;-75
2022/05/16 00:39:32;;;;;;;6.75;2.00;;;20.80;57.80;;;;;;5036199;28;20040;-75
2022/05/16 00:41:59;;;;;;;13.80;2.38;;;20.80;57.90;;;;;;5036315;28;20026;-75
2022/05/16 00:44:25;;;;;;;11.30;2.10;;;20.80;57.90;;;;;;5035573;28;20030;-75
2022/05/16 00:46:50;;;;;;;9.95;2.13;;;20.80;57.80;;;;;;5035679;28;20086;-75
2022/05/16 00:49:24;;;;;;;6.78;1.95;;;20.80;58.00;;;;;;5036043;28;20028;-75
2022/05/16 00:52:00;;;;;;;6.15;2.13;;;20.80;58.00;;;;;;5036034;28;20017;-75
2022/05/16 00:54:34;;;;;;;9.18;2.25;;;20.80;57.90;;;;;;5036023;28;20048;-75
2022/05/16 00:57:05;;;;;;;9.88;2.22;;;20.80;58.00;;;;;;5036033;28;20025;-76
2022/05/16 00:59:55;;;;;;;10.27;2.45;;;20.80;58.00;;;;;;5035600;28;20029;-75
2022/05/16 01:05:08;;;;;;;10.70;2.20;;;20.50;58.80;;;;;;5035849;28;20040;-75
2022/05/16 01:07:40;;;;;;;10.23;2.30;;;20.40;59.00;;;;;;5035002;28;20496;-75
2022/05/16 01:10:10;;;;;;;9.95;1.90;;;20.50;59.10;;;;;;5035194;28;20029;-75
2022/05/16 01:12:42;;;;;;;9.40;1.83;;;20.50;59.00;;;;;;5035357;28;20021;-75
2022/05/16 01:15:11;;;;;;;8.13;1.95;;;20.50;59.00;;;;;;5035527;28;20176;-75
2022/05/16 01:17:37;;;;;;;11.27;2.35;;;20.50;58.90;;;;;;5035499;28;20447;-75
2022/05/16 01:20:05;;;;;;;7.90;2.08;;;20.50;59.10;;;;;;5035269;28;20116;-75
2022/05/16 01:22:35;;;;;;;6.43;2.10;;;20.50;59.10;;;;;;5035224;28;20033;-75
2022/05/16 01:25:10;;;;;;;10.18;2.50;;;20.40;59.00;;;;;;5035181;28;20033;-75
2022/05/16 01:27:43;;;;;;;6.78;1.80;;;20.40;59.10;;;;;;5035206;28;20603;-75
2022/05/16 01:30:09;;;;;;;11.15;2.42;;;20.40;59.30;;;;;;5035276;28;20033;-75
2022/05/16 01:32:35;;;;;;;6.85;2.22;;;20.30;59.50;;;;;;5034999;28;20381;-74
2022/05/16 01:35:01;;;;;;;7.32;2.00;;;20.20;59.70;;;;;;5035457;28;20021;-74
2022/05/16 01:38:18;;;;;;;8.88;2.17;;;20.30;59.70;;;;;;5035058;28;20354;-75
2022/05/16 01:40:12;;;;;;;9.65;1.73;;;20.30;59.60;;;;;;5034721;28;20029;-75
2022/05/16 01:42:37;;;;;;;7.22;1.85;;;20.30;59.60;;;;;;5034781;28;20044;-75
2022/05/16 01:45:03;;;;;;;7.63;2.10;;;20.30;59.60;;;;;;5034681;28;20022;-75
2022/05/16 01:47:29;;;;;;;6.85;2.10;;;20.20;59.70;;;;;;5034754;28;20045;-74
2022/05/16 01:49:54;;;;;;;10.10;2.17;;;20.20;59.80;;;;;;5034391;28;20021;-75
2022/05/16 01:52:20;;;;;;;9.85;2.28;;;20.20;60.10;;;;;;5034808;28;20029;-74
2022/05/16 01:54:46;;;;;;;8.70;2.30;;;20.10;60.30;;;;;;5034726;28;20462;-74
2022/05/16 01:57:11;;;;;;;7.97;2.28;;;20.10;60.30;;;;;;5034760;28;20040;-75
2022/05/16 01:59:37;;;;;;;12.52;2.25;;;20.10;60.20;;;;;;5034390;28;20120;-74
2022/05/16 02:02:02;;;;;;;8.88;2.38;;;20.20;60.10;;;;;;5034298;28;20017;-75
2022/05/16 02:04:28;;;;;;;9.48;2.05;;;20.20;60.00;;;;;;5034524;28;20500;-74
2022/05/16 02:06:53;;;;;;;9.23;2.35;;;20.20;60.00;;;;;;5034218;28;20027;-74
2022/05/16 02:09:19;;;;;;;10.55;1.88;;;20.20;60.00;;;;;;5034537;28;20026;-75
2022/05/16 02:11:45;;;;;;;9.88;2.00;;;20.10;60.00;;;;;;5034378;28;20465;-74
2022/05/16 02:14:10;;;;;;;8.68;2.50;;;20.10;60.10;;;;;;5033959;28;20021;-75
2022/05/16 02:16:36;;;;;;;11.48;2.60;;;20.10;60.30;;;;;;5034400;28;20092;-75
2022/05/16 02:19:01;;;;;;;6.97;1.90;;;20.10;60.40;;;;;;5034121;28;20025;-75
2022/05/16 02:26:55;;;;;;;8.13;2.28;;;19.90;60.80;;;;;;5034020;28;20393;-75
2022/05/16 02:29:21;;;;;;;7.03;2.08;;;19.90;60.90;;;;;;5034461;28;20025;-75
2022/05/16 02:31:47;;;;;;;8.15;1.95;;;19.90;61.00;;;;;;5033828;28;20026;-75
2022/05/16 02:34:13;;;;;;;6.72;1.60;;;19.90;61.00;;;;;;5034214;28;20462;-75
2022/05/16 02:36:39;;;;;;;11.00;2.45;;;19.90;61.00;;;;;;5033556;28;20469;-75
2022/05/16 02:39:05;;;;;;;8.02;2.67;;;19.90;61.00;;;;;;5033968;28;20030;-75
2022/05/16 02:41:30;;;;;;;10.77;2.30;;;19.80;61.10;;;;;;5033727;28;20033;-75
2022/05/16 02:43:56;;;;;;;7.95;2.95;;;19.90;61.20;;;;;;5033792;28;20024;-75
2022/05/16 02:46:22;;;;;;;10.25;2.92;;;19.80;61.20;;;;;;5033221;28;20030;-75
2022/05/16 02:48:47;;;;;;;11.18;2.20;;;19.80;61.50;;;;;;5033545;28;20036;-75
2022/05/16 02:51:13;;;;;;;12.20;2.53;;;19.70;61.70;;;;;;5033924;28;20191;-75
2022/05/16 02:53:38;;;;;;;7.63;2.20;;;19.70;61.70;;;;;;5033486;28;20108;-75
2022/05/16 02:56:04;;;;;;;9.02;2.53;;;19.70;61.80;;;;;;5033441;28;20033;-75
2022/05/16 02:58:30;;;;;;;9.10;2.30;;;19.70;61.70;;;;;;5033518;28;20104;-75
2022/05/16 03:00:55;;;;;;;10.98;2.60;;;19.70;61.80;;;;;;5033126;28;20121;-75
2022/05/16 03:03:21;;;;;;;11.30;2.47;;;19.60;61.90;;;;;;5033568;28;20021;-75
2022/05/16 03:05:47;;;;;;;8.75;2.53;;;19.60;61.90;;;;;;5033436;28;20021;-75
2022/05/16 03:08:12;;;;;;;11.68;2.58;;;19.60;62.10;;;;;;5033550;28;20063;-75
2022/05/16 03:10:38;;;;;;;13.38;2.72;;;19.50;62.50;;;;;;5033425;28;20018;-75
2022/05/16 03:13:03;;;;;;;9.18;2.70;;;19.50;62.60;;;;;;5033396;28;20113;-75
2022/05/16 03:15:30;;;;;;;7.38;2.40;;;19.40;62.80;;;;;;5033201;28;20428;-75
2022/05/16 03:17:56;;;;;;;11.80;2.90;;;19.40;62.90;;;;;;5033192;28;20030;-75
2022/05/16 03:20:21;;;;;;;7.90;2.28;;;19.40;63.10;;;;;;5033486;28;20083;-75
2022/05/16 03:22:47;;;;;;;6.78;2.20;;;19.40;63.00;;;;;;5033216;28;20022;-75
2022/05/16 03:25:13;;;;;;;8.18;2.88;;;19.40;63.00;;;;;;5033093;28;20465;-75
2022/05/16 03:27:39;;;;;;;6.95;2.40;;;19.50;63.00;;;;;;5033052;28;20028;-75
2022/05/16 03:30:07;;;;;;;9.45;2.40;;;19.50;62.90;;;;;;5033047;28;20034;-75
2022/05/16 03:32:33;;;;;;;7.55;2.20;;;19.50;62.80;;;;;;5036242;28;20392;-75
2022/05/16 03:34:58;;;;;;;12.50;2.63;;;19.50;62.90;;;;;;5037252;28;20160;-75
2022/05/16 03:37:24;;;;;;;7.30;2.20;;;19.40;62.90;;;;;;5037412;28;20048;-75
2022/05/16 03:42:34;;;;;;;9.18;2.67;;;19.40;63.30;;;;;;5036910;28;20079;-75
2022/05/16 03:45:00;;;;;;;9.13;2.40;;;19.30;63.30;;;;;;5036981;28;20029;-75
2022/05/16 03:47:26;;;;;;;10.32;2.67;;;19.30;63.50;;;;;;5036820;28;20045;-74
2022/05/16 03:49:52;;;;;;;7.95;2.30;;;19.30;63.70;;;;;;5037192;28;20032;-75
2022/05/16 03:52:18;;;;;;;7.63;2.42;;;19.20;63.80;;;;;;5037171;28;20032;-75
2022/05/16 03:54:43;;;;;;;11.07;2.40;;;19.20;63.80;;;;;;5036601;28;20424;-74
2022/05/16 03:57:10;;;;;;;8.52;2.88;;;19.20;63.80;;;;;;5037163;28;20025;-75
2022/05/16 03:59:35;;;;;;;7.63;2.65;;;19.20;63.80;;;;;;5036894;28;20127;-75
2022/05/16 04:02:01;;;;;;;9.10;2.38;;;19.30;63.80;;;;;;5037000;28;20488;-75
2022/05/16 04:04:27;;;;;;;10.70;2.70;;;19.30;63.90;;;;;;5036851;28;20025;-75
2022/05/16 04:06:53;;;;;;;9.45;2.45;;;19.30;63.90;;;;;;5036554;28;20022;-74
2022/05/16 04:09:19;;;;;;;10.07;2.70;;;19.30;64.00;;;;;;5036787;28;20025;-75
2022/05/16 04:11:44;;;;;;;8.98;2.60;;;19.20;64.30;;;;;;5036677;28;20053;-75
2022/05/16 04:14:10;;;;;;;9.82;2.35;;;19.10;64.50;;;;;;5036481;28;20022;-75
2022/05/16 04:16:37;;;;;;;6.65;2.58;;;19.10;64.40;;;;;;5036576;28;20060;-75
2022/05/16 04:19:04;;;;;;;9.95;2.78;;;19.10;64.60;;;;;;5036449;28;20028;-75
2022/05/16 04:21:30;;;;;;;9.40;2.67;;;19.00;64.70;;;;;;5036352;28;20029;-75
2022/05/16 04:23:56;;;;;;;6.88;2.20;;;19.10;64.80;;;;;;5036235;28;20489;-75
2022/05/16 04:26:22;;;;;;;9.60;3.28;;;19.00;64.80;;;;;;5036210;28;20026;-75
2022/05/16 04:28:47;;;;;;;10.63;2.70;;;19.10;64.90;;;;;;5036514;28;20032;-75
2022/05/16 04:31:13;;;;;;;12.85;2.85;;;19.10;64.90;;;;;;5036039;28;20420;-75
2022/05/16 04:33:39;;;;;;;8.50;2.38;;;19.10;65.10;;;;;;5035930;28;20025;-75
2022/05/16 04:36:04;;;;;;;10.35;2.42;;;19.10;65.00;;;;;;5036145;28;20037;-75
2022/05/16 04:38:31;;;;;;;10.80;2.78;;;19.10;65.20;;;;;;5036248;28;20132;-74
2022/05/16 04:43:41;;;;;;;7.00;2.60;;;19.00;65.30;;;;;;5035971;28;20091;-75
2022/05/16 04:46:07;;;;;;;9.73;3.20;;;19.00;65.40;;;;;;5035861;28;20021;-75
2022/05/16 04:48:34;;;;;;;12.70;2.55;;;19.00;65.30;;;;;;5035973;28;20030;-75
2022/05/16 04:51:00;;;;;;;9.07;2.53;;;19.00;65.40;;;;;;5035937;28;20024;-75
2022/05/16 04:53:25;;;;;;;6.82;2.35;;;19.00;65.40;;;;;;5035919;28;20104;-75
2022/05/16 04:55:53;;;;;;;10.38;2.45;;;19.10;65.40;;;;;;5036064;28;20045;-75
2022/05/16 04:58:20;;;;;;;8.27;2.90;;;19.10;65.50;;;;;;5035948;28;20033;-75
2022/05/16 05:00:45;;;;;;;9.13;2.80;;;19.10;65.50;;;;;;5035526;28;20037;-75
2022/05/16 05:03:11;;;;;;;8.73;2.60;;;19.20;65.50;;;;;;5035549;28;20018;-75
2022/05/16 05:05:36;;;;;;;8.55;2.83;;;19.20;65.30;;;;;;5035640;28;20029;-75
2022/05/16 05:08:02;;;;;;;8.52;2.92;;;19.20;65.30;;;;;;5035178;28;20017;-74
2022/05/16 05:16:07;;;;;;;9.60;3.15;;;19.20;65.40;;;;;;5035173;28;20447;-74
2022/05/16 05:18:33;;;;;;;13.27;3.97;;;19.20;65.50;;;;;;5035114;28;20497;-73
2022/05/16 05:20:58;;;;;;;12.02;3.30;;;19.20;65.50;;;;;;5035398;28;20049;-74
2022/05/16 05:23:25;;;;;;;12.77;3.53;;;19.20;65.50;;;;;;5035287;28;20026;-74
2022/05/16 05:25:51;;;;;;;9.93;3.13;;;19.20;65.60;;;;;;5035486;28;20033;-74
2022/05/16 05:28:17;;;;;;;9.00;3.05;;;19.20;66.00;;;;;;5034910;28;20029;-73
2022/05/16 05:30:42;;;;;;;7.07;2.65;;;19.10;66.00;;;;;;5035299;28;20087;-74
2022/05/16 05:33:08;;;;;;;8.50;2.17;;;19.10;66.30;;;;;;5035194;28;20370;-74
2022/05/16 05:35:33;;;;;;;11.10;3.00;;;19.20;66.10;;;;;;5034963;28;20026;-74
2022/05/16 05:38:00;;;;;;;9.25;3.55;;;19.30;66.20;;;;;;5034825;28;20025;-74
2022/05/16 05:40:26;;;;;;;14.57;3.00;;;19.30;66.20;;;;;;5034928;28;20489;-74
2022/05/16 05:42:51;;;;;;;7.50;2.75;;;19.40;66.00;;;;;;5036300;28;20029;-74
2022/05/16 05:45:17;;;;;;;11.25;2.90;;;19.40;65.90;;;;;;5034752;28;20021;-74
2022/05/16 05:47:43;;;;;;;11.23;3.10;;;19.50;66.10;;;;;;5034164;28;20042;-74
2022/05/16 05:50:09;;;;;;;10.68;2.88;;;19.50;66.20;;;;;;5034909;28;20091;-74
2022/05/16 05:52:35;;;;;;;8.70;2.55;;;19.50;66.20;;;;;;5034643;28;20076;-74
2022/05/16 05:55:02;;;;;;;10.68;3.00;;;19.50;66.20;;;;;;5033916;28;20532;-74
2022/05/16 05:57:27;;;;;;;7.90;3.33;;;19.50;66.20;;;;;;5034477;28;20135;-75
2022/05/16 05:59:54;;;;;;;7.25;2.92;;;19.50;65.90;;;;;;5034242;28;20029;-73
2022/05/16 06:02:21;;;;;;;9.07;2.70;;;19.60;65.80;;;;;;5034612;28;20027;-73
2022/05/16 06:04:47;;;;;;;12.63;3.45;;;19.70;65.80;;;;;;5034524;28;20056;-74
2022/05/16 06:07:13;;;;;;;9.52;3.50;;;19.60;65.60;;;;;;5032874;28;20029;-74
2022/05/16 06:09:39;;;;;;;11.93;3.42;;;19.60;65.90;;;;;;5034000;28;20032;-74
2022/05/16 06:12:06;;;;;;;12.63;3.20;;;19.60;66.70;;;;;;5034187;28;20116;-74
2022/05/16 06:14:32;;;;;;;9.50;3.30;;;19.70;66.10;;;;;;5034190;28;20029;-74
2022/05/16 06:16:58;;;;;;;9.90;3.15;;;19.80;66.30;;;;;;5033694;28;20030;-74
2022/05/16 06:19:24;;;;;;;14.52;3.53;;;19.80;66.20;;;;;;5033692;28;20068;-74
2022/05/16 06:21:49;;;;;;;10.80;3.10;;;19.80;66.60;;;;;;5033896;28;20021;-75
2022/05/16 06:27:02;;;;;;;9.30;3.40;;;19.90;66.00;;;;;;5034154;28;20159;-74
2022/05/16 06:29:29;;;;;;;7.78;3.83;;;19.90;66.10;;;;;;5033807;28;20366;-74
2022/05/16 06:31:55;;;;;;;11.20;3.70;;;19.90;66.20;;;;;;5033672;28;20481;-74
2022/05/16 06:34:20;;;;;;;11.10;4.10;;;19.80;66.30;;;;;;5033689;28;20489;-74
2022/05/16 06:36:47;;;;;;;9.82;3.63;;;19.80;66.90;;;;;;5033767;28;20109;-74
2022/05/16 06:39:12;;;;;;;9.35;3.33;;;19.80;67.20;;;;;;5033689;28;20034;-74
2022/05/16 06:41:38;;;;;;;11.68;3.60;;;19.80;67.20;;;;;;5032606;28;20116;-74
2022/05/16 06:44:04;;;;;;;11.77;2.90;;;19.70;67.10;;;;;;5034026;28;20067;-74
2022/05/16 06:46:29;;;;;;;14.18;3.83;;;19.80;67.10;;;;;;5033517;28;20045;-74
2022/05/16 06:48:55;;;;;;;10.73;3.17;;;19.90;67.50;;;;;;5033580;28;20534;-74
2022/05/16 06:51:21;;;;;;;10.25;3.58;;;20.10;67.50;;;;;;5033709;28;20032;-74
2022/05/16 06:53:47;;;;;;;11.07;3.45;;;20.10;67.10;;;;;;5033793;28;20034;-74
2022/05/16 06:56:13;;;;;;;13.75;4.18;;;20.30;67.20;;;;;;5033418;28;20052;-74
2022/05/16 06:58:39;;;;;;;16.52;3.75;;;20.50;66.60;;;;;;5033147;28;20057;-74
2022/05/16 07:01:05;;;;;;;12.65;3.67;;;20.60;67.30;;;;;;5033534;28;20120;-74
2022/05/16 07:03:32;;;;;;;9.40;3.10;;;20.70;66.70;;;;;;5033554;28;20068;-74
2022/05/16 07:05:58;;;;;;;9.73;3.90;;;20.80;66.90;;;;;;5032630;28;20026;-74
2022/05/16 07:08:24;;;;;;;10.07;3.60;;;20.70;66.00;;;;;;5033090;28;20029;-74
2022/05/16 07:10:51;;;;;;;11.15;3.38;;;20.60;66.60;;;;;;5033038;28;20124;-74
2022/05/16 07:13:17;;;;;;;10.60;3.13;;;20.60;66.60;;;;;;5033095;28;20037;-74
2022/05/16 07:15:43;;;;;;;8.95;3.33;;;20.60;66.90;;;;;;5033345;28;20025;-74
2022/05/16 07:18:09;;;;;;;9.57;3.63;;;20.70;67.20;;;;;;5033203;28;20032;-74
2022/05/16 07:20:35;;;;;;;13.77;3.33;;;20.80;67.60;;;;;;5032661;28;20037;-74
2022/05/16 07:23:01;;;;;;;12.52;3.83;;;20.80;67.90;;;;;;5033381;28;20049;-74
2022/05/16 07:25:28;;;;;;;14.48;3.53;;;20.80;67.70;;;;;;5033208;28;20103;-74
2022/05/16 07:27:57;;;;;;;7.07;3.50;;;20.80;67.80;;;;;;5032799;28;20084;-74
2022/05/16 07:30:31;;;;;;;9.75;3.83;;;20.80;67.90;;;;;;5032666;28;20028;-74
2022/05/16 07:32:58;;;;;;;12.05;3.55;;;20.70;67.70;;;;;;5032947;28;20100;-74
2022/05/16 07:35:28;;;;;;;8.05;3.40;;;20.80;67.70;;;;;;5032787;28;20025;-74
2022/05/16 07:37:54;;;;;;;11.82;3.53;;;20.90;68.60;;;;;;5032909;28;20022;-74
2022/05/16 07:40:22;;;;;;;9.88;3.30;;;20.90;68.20;;;;;;5032616;28;20220;-74
2022/05/16 07:42:49;;;;;;;15.75;3.65;;;21.10;68.80;;;;;;5032648;28;20473;-74
2022/05/16 07:45:15;;;;;;;11.82;3.15;;;21.10;68.50;;;;;;5033009;28;20029;-74
2022/05/16 07:47:41;;;;;;;11.98;3.97;;;21.20;68.40;;;;;;5032600;28;20041;-74
2022/05/16 07:50:07;;;;;;;11.48;3.53;;;21.20;68.90;;;;;;5032571;28;20071;-74
2022/05/16 07:52:33;;;;;;;11.18;3.20;;;21.20;69.40;;;;;;5032813;28;20029;-74
2022/05/16 07:54:59;;;;;;;9.57;4.00;;;21.20;69.70;;;;;;5032459;28;20058;-74
2022/05/16 07:57:25;;;;;;;9.95;4.05;;;21.30;70.60;;;;;;5032784;28;20061;-75
2022/05/16 07:59:51;;;;;;;11.77;4.43;;;21.30;71.40;;;;;;5032923;28;20052;-74
2022/05/16 08:02:16;;;;;;;13.00;4.43;;;21.10;73.40;;;;;;5032928;28;20025;-75
2022/05/16 08:04:42;;;;;;;10.75;4.22;;;21.00;74.20;;;;;;5032693;28;20065;-75
2022/05/16 08:07:09;;;;;;;10.00;4.20;;;21.10;74.00;;;;;;5032635;28;20026;-74
2022/05/16 08:12:24;;;;;;;9.75;3.83;;;21.20;73.00;;;;;;5032619;28;20036;-75
2022/05/16 08:14:49;;;;;;;8.50;2.85;;;21.30;73.40;;;;;;5032383;28;20467;-75
2022/05/16 08:17:15;;;;;;;10.57;3.58;;;21.40;73.10;;;;;;5033260;28;20112;-75
2022/05/16 08:19:40;;;;;;;10.85;3.83;;;21.50;74.30;;;;;;5036113;28;20025;-75
2022/05/16 08:22:06;;;;;;;8.50;3.78;;;21.50;76.40;;;;;;5036051;28;20033;-75
2022/05/16 08:24:32;;;;;;;12.85;3.83;;;21.60;76.00;;;;;;5036394;28;20491;-75
2022/05/16 08:26:57;;;;;;;10.27;3.70;;;21.70;75.80;;;;;;5036118;28;20112;-75
2022/05/16 08:29:23;;;;;;;10.77;3.67;;;21.70;75.20;;;;;;5036253;28;20034;-75
2022/05/16 08:31:48;;;;;;;10.57;3.67;;;21.80;74.50;;;;;;5036257;28;20022;-74
2022/05/16 08:34:14;;;;;;;8.68;3.70;;;21.90;73.20;;;;;;5036146;28;20032;-74
2022/05/16 08:42:11;;;;;;;6.85;3.38;;;22.00;72.50;;;;;;5035944;28;20086;-75
2022/05/16 08:44:43;;;;;;;6.80;2.70;;;22.00;72.00;;;;;;5035675;28;20426;-74
2022/05/16 08:47:35;;;;;;;8.90;3.55;;;22.00;72.50;;;;;;5035638;28;20497;-74
2022/05/16 08:50:13;;;;;;;15.00;3.70;;;22.00;74.20;;;;;;5034245;28;20055;-74
2022/05/16 08:52:42;;;;;;;8.65;2.45;;;22.10;73.00;;;;;;5035398;28;20337;-75
2022/05/16 08:55:27;;;;;;;9.23;2.53;;;22.10;72.90;;;;;;5035139;28;20021;-74
2022/05/16 08:58:06;;;;;;;10.18;3.30;;;22.10;73.10;;;;;;5035861;28;20029;-75
2022/05/16 09:00:57;;;;;;;12.35;2.97;;;22.20;73.10;;;;;;5035310;28;20457;-75
2022/05/16 09:03:48;;;;;;;8.73;3.75;;;22.40;72.90;;;;;;5035539;28;20032;-75
2022/05/16 09:06:31;;;;;;;8.65;3.00;;;22.50;72.10;;;;;;5025514;28;20042;-75
2022/05/16 09:09:15;;;;;;;6.07;3.00;;;22.50;70.80;;;;;;5035075;28;20021;-75
2022/05/16 09:11:58;;;;;;;9.23;3.28;;;22.60;70.40;;;;;;5035072;28;20060;-75
2022/05/16 09:14:45;;;;;;;9.80;3.78;;;22.80;69.90;;;;;;5034947;28;20060;-75
2022/05/16 09:17:25;;;;;;;8.13;3.25;;;22.80;69.00;;;;;;5035255;28;20021;-75
2022/05/16 09:20:18;;;;;;;9.00;3.28;;;22.90;69.10;;;;;;5035113;28;20026;-75
2022/05/16 09:23:09;;;;;;;15.48;3.10;;;23.20;69.20;;;;;;5035532;28;20032;-75
2022/05/16 09:25:53;;;;;;;8.57;2.78;;;23.60;69.00;;;;;;5035386;28;20041;-75
2022/05/16 09:28:37;;;;;;;8.88;3.08;;;24.00;68.30;;;;;;5034914;28;20028;-75
2022/05/16 09:31:11;;;;;;;9.95;3.00;;;24.20;66.70;;;;;;5034895;28;20037;-75
2022/05/16 09:33:45;;;;;;;13.80;2.38;;;24.50;64.80;;;;;;5034951;28;20029;-75
2022/05/16 09:36:13;;;;;;;10.63;2.65;;;24.60;63.90;;;;;;5034789;28;20032;-75
2022/05/16 09:38:43;;;;;;;10.05;2.30;;;24.60;63.90;;;;;;5034766;28;20018;-75
2022/05/16 09:41:16;;;;;;;7.05;2.53;;;24.70;64.50;;;;;;5034811;28;20224;-75
2022/05/16 09:43:50;;;;;;;5.68;2.60;;;24.90;63.10;;;;;;5034741;28;20028;-75
2022/05/16 09:46:24;;;;;;;7.30;2.10;;;24.90;62.50;;;;;;5034528;28;20485;-75
2022/05/16 09:49:18;;;;;;;5.70;2.53;;;24.80;63.10;;;;;;5034831;28;20326;-75
2022/05/16 09:51:48;;;;;;;8.90;2.67;;;24.60;63.30;;;;;;5026647;28;20561;-75
2022/05/16 09:54:32;;;;;;;7.43;2.45;;;24.60;64.10;;;;;;5033920;28;20036;-75
2022/05/16 09:56:58;;;;;;;6.57;2.50;;;24.50;63.50;;;;;;5034366;28;20469;-75
2022/05/16 10:00:05;;;;;;;6.38;2.03;;;24.40;63.30;;;;;;5034103;28;20034;-75
2022/05/16 10:02:35;;;;;;;7.45;3.08;;;24.40;65.10;;;;;;5031127;28;20040;-75
2022/05/16 10:05:23;;;;;;;10.93;2.47;;;24.60;65.60;;;;;;5034047;28;20060;-75
2022/05/16 10:07:58;;;;;;;8.60;2.55;;;24.80;64.70;;;;;;5034382;28;20017;-76
2022/05/16 10:10:33;;;;;;;8.30;2.60;;;25.10;63.80;;;;;;5034465;28;20087;-75
2022/05/16 10:12:59;;;;;;;12.15;2.92;;;25.30;62.80;;;;;;5034147;28;20097;-75
2022/05/16 10:15:25;;;;;;;6.80;2.72;;;25.50;62.20;;;;;;5033794;28;20029;-75
2022/05/16 10:17:54;;;;;;;7.50;2.22;;;25.70;62.00;;;;;;5033740;28;20361;-74
2022/05/16 10:20:24;;;;;;;5.22;2.53;;;25.80;61.20;;;;;;5033705;28;20095;-75
2022/05/16 10:23:05;;;;;;;7.72;2.05;;;25.80;60.60;;;;;;5033965;28;20071;-75
2022/05/16 10:25:38;;;;;;;7.72;2.75;;;25.80;61.00;;;;;;5033677;28;20477;-75
2022/05/16 10:28:08;;;;;;;10.23;2.33;;;25.70;61.10;;;;;;5033853;28;20025;-75
2022/05/16 10:33:24;;;;;;;7.30;2.55;;;25.70;61.40;;;;;;5033903;28;20026;-74
2022/05/16 10:33:24;;;;;;;5.70;1.70;;;25.70;61.30;;;;;;5033554;28;20044;-75
2022/05/16 10:35:59;;;;;;;8.57;1.80;;;25.70;61.70;;;;;;5033339;28;20045;-75
2022/05/16 10:38:38;;;;;;;8.02;1.63;;;25.80;62.30;;;;;;5033590;28;20021;-75
2022/05/16 10:41:10;;;;;;;4.45;1.60;;;25.80;61.40;;;;;;5033425;28;20037;-74
2022/05/16 10:43:51;;;;;;;;;;;25.80;61.10;;;;;;5033832;28;20469;-75
2022/05/16 10:46:25;;;;;;;8.85;2.63;;;25.80;60.40;;;;;;5033327;28;19999;-74
2022/05/16 10:48:53;;;;;;;5.25;2.30;;;25.90;60.10;;;;;;5033342;28;20036;-75
2022/05/16 10:51:36;;;;;;;7.75;2.10;;;25.90;60.40;;;;;;5032949;28;20048;-74
2022/05/16 10:54:06;;;;;;;7.03;1.60;;;25.90;60.30;;;;;;5033100;28;20171;-75
2022/05/16 10:56:43;;;;;;;8.80;1.83;;;25.90;60.40;;;;;;5033614;28;20026;-75
2022/05/16 10:59:31;;;;;;;6.57;2.15;;;25.90;60.90;;;;;;5033007;28;20014;-74
2022/05/16 11:02:00;;;;;;;5.38;2.10;;;25.90;60.50;;;;;;5033359;28;20029;-75
2022/05/16 11:04:43;;;;;;;8.70;2.17;;;26.00;61.00;;;;;;5032816;28;20026;-75
2022/05/16 11:07:22;;;;;;;9.50;2.40;;;26.10;61.00;;;;;;5033145;28;20485;-75
2022/05/16 11:10:08;;;;;;;8.20;2.10;;;26.10;60.00;;;;;;5032687;28;20440;-75
2022/05/16 11:12:51;;;;;;;6.97;2.58;;;26.30;60.20;;;;;;5033230;28;20022;-74
2022/05/16 11:15:17;;;;;;;4.82;2.03;;;26.40;59.90;;;;;;5033259;28;20087;-75
2022/05/16 11:17:56;;;;;;;6.57;2.08;;;26.40;59.70;;;;;;5033336;28;20025;-74
2022/05/16 11:20:35;;;;;;;8.48;2.28;;;26.40;60.30;;;;;;5033145;28;20424;-75
2022/05/16 11:23:14;;;;;;;5.97;2.45;;;26.30;61.20;;;;;;5032932;28;20377;-75
2022/05/16 11:26:06;;;;;;;8.20;2.65;;;26.20;60.60;;;;;;5033325;28;20035;-75
2022/05/16 11:28:36;;;;;;;8.82;2.60;;;26.10;60.00;;;;;;5027139;28;20085;-75
2022/05/16 11:31:15;;;;;;;4.50;1.92;;;26.00;61.40;;;;;;5032933;28;20033;-74
2022/05/16 11:33:54;;;;;;;9.20;3.10;;;25.90;61.70;;;;;;5032858;28;20040;-75
2022/05/16 11:36:45;;;;;;;10.88;3.22;;;25.80;61.20;;;;;;5033088;28;20071;-75
2022/05/16 11:39:10;;;;;;;8.20;2.47;;;25.80;61.10;;;;;;5033227;28;20030;-75
2022/05/16 11:42:05;;;;;;;6.53;2.42;;;25.70;61.30;;;;;;5033245;28;20029;-75
2022/05/16 11:44:44;;;;;;;9.18;2.08;;;25.60;61.70;;;;;;5033005;28;20036;-75
2022/05/16 11:47:26;;;;;;;5.93;1.98;;;25.60;61.90;;;;;;5032817;28;20038;-75
2022/05/16 11:49:52;;;;;;;;;;;25.60;63.00;;;;;;5033578;28;20017;-75
2022/05/16 11:52:33;;;;;;;4.78;2.55;;;25.50;63.20;;;;;;5033733;28;20478;-75
2022/05/16 12:00:31;;;;;;;10.18;2.85;;;25.50;63.40;;;;;;5036754;28;20021;-75
2022/05/16 12:00:56;;;;;;;8.18;3.08;;;25.30;64.30;;;;;;5036630;28;20405;-75
2022/05/16 12:03:22;;;;;;;10.55;2.78;;;25.20;65.40;;;;;;5037011;28;20053;-75
2022/05/16 12:05:50;;;;;;;7.32;2.67;;;25.00;66.20;;;;;;5036791;28;20029;-75
2022/05/16 12:08:41;;;;;;;5.47;2.55;;;24.90;66.80;;;;;;5036236;28;20018;-76
2022/05/16 12:11:07;;;;;;;9.48;2.20;;;24.80;67.90;;;;;;5036842;28;20379;-75
2022/05/16 12:13:35;;;;;;;7.38;2.42;;;24.70;68.10;;;;;;5036511;28;20108;-75
2022/05/16 12:16:13;;;;;;;5.07;2.30;;;24.60;68.90;;;;;;5036305;28;20037;-75
2022/05/16 12:18:43;;;;;;;10.75;2.70;;;24.50;71.00;;;;;;5036167;28;20026;-75
2022/05/16 12:21:32;;;;;;;9.20;2.85;;;24.30;72.20;;;;;;5036032;28;20456;-74
2022/05/16 12:24:01;;;;;;;8.55;3.00;;;24.10;74.50;;;;;;5032491;28;20087;-76
2022/05/16 12:26:26;;;;;;;9.35;3.90;;;24.00;76.00;;;;;;5036518;28;20033;-75
2022/05/16 12:29:08;;;;;;;6.13;3.40;;;23.70;76.70;;;;;;5036048;28;20354;-75
2022/05/16 12:31:49;;;;;;;9.45;4.28;;;23.50;77.60;;;;;;5035989;28;20028;-75
2022/05/16 12:34:35;;;;;;;5.18;3.08;;;23.40;77.80;;;;;;5036237;28;20080;-75
2022/05/16 12:37:05;;;;;;;8.73;3.80;;;23.30;78.80;;;;;;5035712;28;20025;-75
2022/05/16 12:39:52;;;;;;;5.82;3.05;;;23.20;79.50;;;;;;5036317;28;20029;-75
2022/05/16 12:42:50;;;;;;;12.18;4.10;;;23.20;80.20;;;;;;5035880;28;20477;-75
2022/05/16 12:45:26;;;;;;;7.70;3.47;;;23.10;79.90;;;;;;5036080;28;20029;-75
2022/05/16 12:48:09;;;;;;;8.98;3.72;;;23.10;80.00;;;;;;5035718;28;20144;-75
2022/05/16 12:51:21;;;;;;;9.10;3.20;;;23.10;80.10;;;;;;5035538;28;20022;-75
2022/05/16 12:54:12;;;;;;;4.75;3.30;;;23.10;80.30;;;;;;5034437;28;20040;-75
2022/05/16 12:56:47;;;;;;;9.18;4.07;;;23.10;80.40;;;;;;5035757;28;20076;-76
2022/05/16 12:59:12;;;;;;;6.68;4.07;;;23.10;80.70;;;;;;5034917;28;20087;-74
2022/05/16 13:01:54;;;;;;;7.53;3.58;;;23.00;80.40;;;;;;5035745;28;20029;-75
2022/05/16 13:04:41;;;;;;;7.88;4.10;;;22.90;81.40;;;;;;5033981;28;20022;-75
2022/05/16 13:07:31;;;;;;;8.00;4.28;;;22.90;82.30;;;;;;5035650;28;20056;-74
2022/05/16 13:10:35;;;;;;;9.15;5.13;;;22.80;82.90;;;;;;5035256;28;20042;-75
2022/05/16 13:13:28;;;;;;;12.50;6.13;;;22.70;84.00;;;;;;5035780;28;20029;-76
2022/05/16 13:16:17;;;;;;;12.60;6.07;;;22.80;84.80;;;;;;5035260;28;20029;-75
2022/05/16 13:18:51;;;;;;;11.30;6.28;;;22.80;85.40;;;;;;5035023;28;20026;-74
2022/05/16 13:21:18;;;;;;;10.68;6.97;;;22.80;86.00;;;;;;5035109;28;20065;-74
2022/05/16 13:23:44;;;;;;;9.18;7.43;;;22.90;86.20;;;;;;5035182;28;20033;-74
2022/05/16 13:31:44;;;;;;;14.60;9.52;;;22.80;86.30;;;;;;5034887;28;20402;-75
2022/05/16 13:34:12;;;;;;;11.90;8.13;;;22.70;85.60;;;;;;5035031;28;20030;-75
2022/05/16 13:36:43;;;;;;;13.35;8.25;;;22.60;84.80;;;;;;5035200;28;20021;-75
2022/05/16 13:39:12;;;;;;;12.35;7.43;;;22.50;84.70;;;;;;5034337;28;20143;-75